SIA1727 RJTT-WSSS
Flight info
| Callsign | SIA1727 |
|---|---|
| Flight time | N/A |
| Altitude | 36000 |
| Route | LAXAS Y56 TOHME Y54 KOHWA Y12 LAXEL Y52 IGURU G581 HCN N892 MIGUG/K0845F360 N892 MELAS/N0456F360 N892 MABAL MABAL2B |
| Aircraft | CONC/H-SDE2E3FGHIRYW/X |
Departure
| Time | 2026-05-08 06:57 |
|---|---|
| Airport | Tokyo Haneda International Airport (RJTT) |
Arrival
| Time | N/A |
|---|---|
| Airport | Singapore Changi Airport (WSSS) |
| Time | Latitude | Longitude | Altitude | Speed | Heading |
|---|---|---|---|---|---|
| 2026-05-08 06:10 | 35.54488 | 139.78472 | 31 ft | 0 kts | 61° |
| 2026-05-08 06:43 | 35.54482 | 139.78459 | 31 ft | 2 kts | 61° |
| 2026-05-08 06:43 | 35.54474 | 139.78442 | 31 ft | 2 kts | 61° |
| 2026-05-08 06:43 | 35.54467 | 139.78425 | 31 ft | 2 kts | 58° |
| 2026-05-08 06:44 | 35.54456 | 139.78409 | 31 ft | 2 kts | 17° |
| 2026-05-08 06:44 | 35.54441 | 139.78406 | 31 ft | 2 kts | 352° |
| 2026-05-08 06:44 | 35.54425 | 139.78410 | 31 ft | 2 kts | 340° |
| 2026-05-08 06:44 | 35.54411 | 139.78417 | 31 ft | 0 kts | 329° |
| 2026-05-08 06:47 | 35.54414 | 139.78415 | 31 ft | 1 kts | 328° |
| 2026-05-08 06:47 | 35.54424 | 139.78405 | 31 ft | 2 kts | 324° |
| 2026-05-08 06:47 | 35.54441 | 139.78392 | 31 ft | 3 kts | 330° |
| 2026-05-08 06:47 | 35.54467 | 139.78374 | 31 ft | 6 kts | 330° |
| 2026-05-08 06:48 | 35.54515 | 139.78340 | 31 ft | 10 kts | 330° |
| 2026-05-08 06:48 | 35.54589 | 139.78287 | 31 ft | 14 kts | 330° |
| 2026-05-08 06:48 | 35.54687 | 139.78217 | 31 ft | 18 kts | 329° |
| 2026-05-08 06:48 | 35.54808 | 139.78132 | 31 ft | 22 kts | 330° |
| 2026-05-08 06:49 | 35.54941 | 139.78039 | 31 ft | 23 kts | 330° |
| 2026-05-08 06:49 | 35.55082 | 139.77942 | 31 ft | 24 kts | 329° |
| 2026-05-08 06:49 | 35.55218 | 139.77843 | 31 ft | 21 kts | 330° |
| 2026-05-08 06:49 | 35.55336 | 139.77758 | 31 ft | 19 kts | 329° |
| 2026-05-08 06:50 | 35.55452 | 139.77673 | 31 ft | 19 kts | 330° |
| 2026-05-08 06:50 | 35.55572 | 139.77595 | 31 ft | 20 kts | 331° |
| 2026-05-08 06:50 | 35.55691 | 139.77508 | 31 ft | 20 kts | 329° |
| 2026-05-08 06:50 | 35.55812 | 139.77420 | 30 ft | 20 kts | 329° |
| 2026-05-08 06:51 | 35.55917 | 139.77345 | 29 ft | 15 kts | 333° |
| 2026-05-08 06:51 | 35.56015 | 139.77355 | 30 ft | 15 kts | 28° |
| 2026-05-08 06:51 | 35.56109 | 139.77432 | 30 ft | 17 kts | 35° |
| 2026-05-08 06:51 | 35.56214 | 139.77522 | 30 ft | 20 kts | 35° |
| 2026-05-08 06:52 | 35.56312 | 139.77609 | 30 ft | 9 kts | 43° |
| 2026-05-08 06:52 | 35.56318 | 139.77616 | 29 ft | 0 kts | 46° |
| 2026-05-08 06:53 | 35.56318 | 139.77618 | 29 ft | 1 kts | 47° |
| 2026-05-08 06:53 | 35.56334 | 139.77648 | 29 ft | 8 kts | 58° |
| 2026-05-08 06:53 | 35.56375 | 139.77732 | 29 ft | 14 kts | 61° |
| 2026-05-08 06:54 | 35.56425 | 139.77838 | 29 ft | 15 kts | 60° |
| 2026-05-08 06:54 | 35.56482 | 139.77956 | 29 ft | 18 kts | 58° |
| 2026-05-08 06:54 | 35.56557 | 139.77982 | 29 ft | 9 kts | 335° |
| 2026-05-08 06:54 | 35.56604 | 139.77930 | 29 ft | 9 kts | 306° |
| 2026-05-08 06:55 | 35.56642 | 139.77864 | 29 ft | 10 kts | 304° |
| 2026-05-08 06:55 | 35.56682 | 139.77791 | 29 ft | 10 kts | 303° |
| 2026-05-08 06:55 | 35.56716 | 139.77723 | 31 ft | 9 kts | 297° |
| 2026-05-08 06:55 | 35.56708 | 139.77668 | 31 ft | 4 kts | 237° |
| 2026-05-08 06:56 | 35.56653 | 139.77622 | 31 ft | 40 kts | 216° |
| 2026-05-08 06:56 | 35.56128 | 139.77175 | 31 ft | 143 kts | 215° |
| 2026-05-08 06:56 | 35.55034 | 139.76256 | 48 ft | 234 kts | 213° |
| 2026-05-08 06:56 | 35.53558 | 139.75350 | 618 ft | 234 kts | 185° |
| 2026-05-08 06:57 | 35.51939 | 139.75469 | 1444 ft | 230 kts | 176° |
| 2026-05-08 06:57 | 35.50375 | 139.75749 | 2331 ft | 231 kts | 178° |
| 2026-05-08 06:57 | 35.48756 | 139.76035 | 3215 ft | 241 kts | 179° |
| 2026-05-08 06:57 | 35.47058 | 139.76200 | 4142 ft | 246 kts | 186° |
| 2026-05-08 06:58 | 35.45355 | 139.76180 | 5055 ft | 246 kts | 187° |
| 2026-05-08 06:58 | 35.43611 | 139.76152 | 5985 ft | 255 kts | 187° |
| 2026-05-08 06:58 | 35.41815 | 139.76142 | 6950 ft | 259 kts | 187° |
| 2026-05-08 06:58 | 35.40002 | 139.76150 | 7910 ft | 262 kts | 187° |
| 2026-05-08 06:59 | 35.38162 | 139.76169 | 8919 ft | 267 kts | 185° |
| 2026-05-08 06:59 | 35.36287 | 139.76357 | 9932 ft | 274 kts | 181° |
| 2026-05-08 06:59 | 35.34383 | 139.76691 | 10934 ft | 280 kts | 179° |
| 2026-05-08 06:59 | 35.32435 | 139.77182 | 12060 ft | 292 kts | 174° |
| 2026-05-08 07:00 | 35.30359 | 139.77849 | 12728 ft | 326 kts | 172° |
| 2026-05-08 07:00 | 35.28063 | 139.78669 | 13202 ft | 360 kts | 171° |
| 2026-05-08 07:00 | 35.25556 | 139.79588 | 13684 ft | 392 kts | 171° |
| 2026-05-08 07:00 | 35.22823 | 139.80342 | 14161 ft | 410 kts | 185° |
| 2026-05-08 07:01 | 35.19998 | 139.79837 | 14714 ft | 418 kts | 206° |
| 2026-05-08 07:01 | 35.17504 | 139.77947 | 15290 ft | 432 kts | 226° |
| 2026-05-08 07:01 | 35.15517 | 139.75127 | 15819 ft | 440 kts | 233° |
| 2026-05-08 07:01 | 35.13619 | 139.72203 | 16322 ft | 439 kts | 230° |
| 2026-05-08 07:02 | 35.11752 | 139.69245 | 16867 ft | 442 kts | 242° |
| 2026-05-08 07:02 | 35.10503 | 139.65798 | 17455 ft | 448 kts | 248° |
| 2026-05-08 07:02 | 35.09497 | 139.62181 | 18116 ft | 452 kts | 254° |
| 2026-05-08 07:02 | 35.08821 | 139.58401 | 18686 ft | 458 kts | 256° |
| 2026-05-08 07:03 | 35.08174 | 139.54585 | 19320 ft | 462 kts | 256° |
| 2026-05-08 07:03 | 35.07539 | 139.50720 | 20002 ft | 466 kts | 257° |
| 2026-05-08 07:03 | 35.06907 | 139.46868 | 20700 ft | 471 kts | 257° |
| 2026-05-08 07:03 | 35.06257 | 139.42929 | 21427 ft | 476 kts | 257° |
| 2026-05-08 07:04 | 35.05595 | 139.38953 | 22203 ft | 481 kts | 257° |
| 2026-05-08 07:04 | 35.04928 | 139.34936 | 22969 ft | 486 kts | 257° |
| 2026-05-08 07:04 | 35.04249 | 139.30874 | 23678 ft | 491 kts | 257° |
| 2026-05-08 07:04 | 35.03443 | 139.26825 | 24414 ft | 492 kts | 248° |
| 2026-05-08 07:05 | 35.01883 | 139.23095 | 25160 ft | 496 kts | 240° |
| 2026-05-08 07:05 | 35.00037 | 139.19508 | 25767 ft | 503 kts | 236° |
| 2026-05-08 07:05 | 34.97928 | 139.16071 | 26385 ft | 508 kts | 234° |
| 2026-05-08 07:05 | 34.95728 | 139.12677 | 27063 ft | 512 kts | 231° |
| 2026-05-08 07:06 | 34.93387 | 139.09380 | 27633 ft | 516 kts | 232° |
| 2026-05-08 07:06 | 34.91081 | 139.06011 | 28090 ft | 519 kts | 232° |
| 2026-05-08 07:06 | 34.88774 | 139.02622 | 28424 ft | 522 kts | 232° |
| 2026-05-08 07:06 | 34.86445 | 138.99211 | 28707 ft | 526 kts | 232° |
| 2026-05-08 07:07 | 34.84100 | 138.95779 | 29584 ft | 526 kts | 232° |
| 2026-05-08 07:07 | 34.81751 | 138.92352 | 30606 ft | 529 kts | 232° |
| 2026-05-08 07:07 | 34.79381 | 138.88900 | 31394 ft | 535 kts | 232° |
| 2026-05-08 07:07 | 34.76986 | 138.85415 | 32573 ft | 539 kts | 232° |
| 2026-05-08 07:08 | 34.74551 | 138.81868 | 33123 ft | 554 kts | 232° |
| 2026-05-08 07:08 | 34.72049 | 138.78238 | 33580 ft | 567 kts | 231° |
| 2026-05-08 07:08 | 34.69484 | 138.74520 | 34041 ft | 579 kts | 231° |
| 2026-05-08 07:08 | 34.66905 | 138.70785 | 34467 ft | 590 kts | 232° |
| 2026-05-08 07:09 | 34.64243 | 138.66931 | 34918 ft | 601 kts | 232° |
| 2026-05-08 07:09 | 34.61496 | 138.62959 | 35391 ft | 611 kts | 232° |
| 2026-05-08 07:09 | 34.58774 | 138.59024 | 35821 ft | 622 kts | 232° |
| 2026-05-08 07:09 | 34.55970 | 138.54980 | 36233 ft | 632 kts | 232° |
| 2026-05-08 07:10 | 34.53113 | 138.50863 | 36691 ft | 642 kts | 232° |
| 2026-05-08 07:10 | 34.50212 | 138.46688 | 37183 ft | 654 kts | 232° |
| 2026-05-08 07:10 | 34.47248 | 138.42426 | 37710 ft | 666 kts | 232° |
| 2026-05-08 07:10 | 34.44234 | 138.38097 | 38355 ft | 680 kts | 232° |
| 2026-05-08 07:11 | 34.41146 | 138.33671 | 38897 ft | 695 kts | 232° |
| 2026-05-08 07:11 | 34.37989 | 138.29146 | 39371 ft | 712 kts | 232° |
| 2026-05-08 07:11 | 34.34753 | 138.24520 | 39883 ft | 728 kts | 232° |
| 2026-05-08 07:11 | 34.31440 | 138.19786 | 40432 ft | 746 kts | 232° |
| 2026-05-08 07:12 | 34.28042 | 138.14939 | 41014 ft | 765 kts | 232° |
| 2026-05-08 07:12 | 34.24553 | 138.09971 | 41630 ft | 785 kts | 232° |
| 2026-05-08 07:12 | 34.20971 | 138.04873 | 42286 ft | 806 kts | 231° |
| 2026-05-08 07:12 | 34.17289 | 137.99644 | 42978 ft | 828 kts | 231° |
| 2026-05-08 07:13 | 34.13501 | 137.94271 | 43639 ft | 851 kts | 231° |
| 2026-05-08 07:13 | 34.09607 | 137.88755 | 44402 ft | 875 kts | 231° |
| 2026-05-08 07:13 | 34.05608 | 137.83103 | 45063 ft | 898 kts | 231° |
| 2026-05-08 07:13 | 34.01503 | 137.77308 | 45876 ft | 916 kts | 231° |
| 2026-05-08 07:14 | 33.97338 | 137.71436 | 46202 ft | 928 kts | 231° |
| 2026-05-08 07:14 | 33.93109 | 137.65488 | 46459 ft | 940 kts | 231° |
| 2026-05-08 07:14 | 33.88834 | 137.59479 | 46778 ft | 951 kts | 231° |
| 2026-05-08 07:14 | 33.84499 | 137.53405 | 47103 ft | 961 kts | 231° |
| 2026-05-08 07:15 | 33.80189 | 137.47367 | 47412 ft | 970 kts | 231° |
| 2026-05-08 07:15 | 33.75768 | 137.41189 | 47705 ft | 979 kts | 231° |
| 2026-05-08 07:15 | 33.71299 | 137.34956 | 47983 ft | 988 kts | 231° |
| 2026-05-08 07:15 | 33.66805 | 137.28694 | 48196 ft | 996 kts | 231° |
| 2026-05-08 07:16 | 33.62257 | 137.22375 | 48457 ft | 1004 kts | 231° |
| 2026-05-08 07:16 | 33.57677 | 137.16015 | 48715 ft | 1012 kts | 231° |
| 2026-05-08 07:16 | 33.53084 | 137.09655 | 48953 ft | 1019 kts | 231° |
| 2026-05-08 07:16 | 33.48425 | 137.03213 | 49183 ft | 1026 kts | 231° |
| 2026-05-08 07:17 | 33.43737 | 136.96739 | 49400 ft | 1033 kts | 231° |
| 2026-05-08 07:17 | 33.39471 | 136.90864 | 49585 ft | 1038 kts | 231° |
| 2026-05-08 07:17 | 33.34722 | 136.84328 | 49787 ft | 1044 kts | 231° |
| 2026-05-08 07:17 | 33.29938 | 136.77759 | 49982 ft | 1050 kts | 231° |
| 2026-05-08 07:18 | 33.25122 | 136.71161 | 50155 ft | 1056 kts | 231° |
| 2026-05-08 07:18 | 33.20285 | 136.64539 | 50382 ft | 1061 kts | 231° |
| 2026-05-08 07:18 | 33.15422 | 136.57900 | 50694 ft | 1064 kts | 231° |
| 2026-05-08 07:18 | 33.10536 | 136.51241 | 51241 ft | 1065 kts | 231° |
| 2026-05-08 07:19 | 33.05663 | 136.44608 | 51961 ft | 1064 kts | 231° |
| 2026-05-08 07:19 | 33.00779 | 136.37978 | 52633 ft | 1064 kts | 231° |
| 2026-05-08 07:19 | 32.95899 | 136.31361 | 53097 ft | 1065 kts | 231° |
| 2026-05-08 07:19 | 32.90993 | 136.24720 | 53339 ft | 1069 kts | 231° |
| 2026-05-08 07:20 | 32.86071 | 136.18074 | 53482 ft | 1073 kts | 231° |
| 2026-05-08 07:20 | 32.81131 | 136.11413 | 53745 ft | 1075 kts | 231° |
| 2026-05-08 07:20 | 32.76179 | 136.04747 | 54271 ft | 1075 kts | 231° |
| 2026-05-08 07:20 | 32.71229 | 135.98100 | 54975 ft | 1072 kts | 230° |
| 2026-05-08 07:21 | 32.66301 | 135.91490 | 55731 ft | 1069 kts | 230° |
| 2026-05-08 07:21 | 32.61370 | 135.84890 | 56323 ft | 1068 kts | 230° |
| 2026-05-08 07:21 | 32.56436 | 135.78298 | 56670 ft | 1069 kts | 230° |
| 2026-05-08 07:21 | 32.51495 | 135.71708 | 56845 ft | 1072 kts | 230° |
| 2026-05-08 07:22 | 32.48207 | 135.67330 | 56970 ft | 1074 kts | 230° |
| 2026-05-08 07:22 | 32.43239 | 135.60723 | 57251 ft | 1075 kts | 230° |
| 2026-05-08 07:22 | 32.38266 | 135.54123 | 57710 ft | 1074 kts | 230° |
| 2026-05-08 07:22 | 32.33295 | 135.47536 | 58304 ft | 1071 kts | 230° |
| 2026-05-08 07:23 | 32.26727 | 135.38853 | 59049 ft | 1069 kts | 230° |
| 2026-05-08 07:23 | 32.21767 | 135.32307 | 59301 ft | 1070 kts | 230° |
| 2026-05-08 07:23 | 32.16797 | 135.25760 | 59540 ft | 1071 kts | 230° |
| 2026-05-08 07:23 | 32.13434 | 135.21338 | 59703 ft | 1071 kts | 230° |
| 2026-05-08 07:24 | 32.08455 | 135.14798 | 59873 ft | 1073 kts | 230° |
| 2026-05-08 07:24 | 32.03465 | 135.08258 | 59979 ft | 1075 kts | 230° |
| 2026-05-08 07:24 | 31.93498 | 134.95226 | 60108 ft | 1076 kts | 230° |
| 2026-05-08 07:25 | 31.83460 | 134.82147 | 60123 ft | 1079 kts | 230° |
| 2026-05-08 07:26 | 31.68305 | 134.62489 | 60162 ft | 1083 kts | 230° |
| 2026-05-08 07:26 | 31.58162 | 134.49387 | 60157 ft | 1085 kts | 230° |
| 2026-05-08 07:27 | 31.47986 | 134.36291 | 60159 ft | 1088 kts | 230° |
| 2026-05-08 07:27 | 31.37774 | 134.23195 | 60146 ft | 1090 kts | 230° |
| 2026-05-08 07:28 | 31.27521 | 134.10089 | 60115 ft | 1093 kts | 230° |
| 2026-05-08 07:28 | 31.17225 | 133.96978 | 60195 ft | 1094 kts | 230° |
| 2026-05-08 07:29 | 31.06922 | 133.83899 | 60158 ft | 1096 kts | 230° |
| 2026-05-08 07:29 | 30.96577 | 133.70813 | 60174 ft | 1099 kts | 230° |
| 2026-05-08 07:30 | 30.86198 | 133.57731 | 60166 ft | 1099 kts | 230° |
| 2026-05-08 07:30 | 30.75810 | 133.44681 | 60133 ft | 1102 kts | 230° |
| 2026-05-08 07:31 | 30.65363 | 133.31601 | 60211 ft | 1103 kts | 230° |
| 2026-05-08 07:31 | 30.54902 | 133.18550 | 60220 ft | 1105 kts | 230° |
| 2026-05-08 07:32 | 30.44442 | 133.05544 | 60228 ft | 1103 kts | 230° |
| 2026-05-08 07:32 | 30.33962 | 132.92557 | 60190 ft | 1100 kts | 230° |
| 2026-05-08 07:33 | 30.23553 | 132.79700 | 60233 ft | 1105 kts | 230° |
| 2026-05-08 07:33 | 30.13023 | 132.66738 | 60216 ft | 1107 kts | 229° |
| 2026-05-08 07:34 | 30.02463 | 132.53782 | 60211 ft | 1107 kts | 229° |
| 2026-05-08 07:34 | 29.91883 | 132.40845 | 60175 ft | 1109 kts | 229° |
| 2026-05-08 07:35 | 29.81329 | 132.27984 | 60244 ft | 1092 kts | 229° |
| 2026-05-08 07:35 | 29.70942 | 132.15365 | 60239 ft | 1086 kts | 229° |
| 2026-05-08 07:36 | 29.60525 | 132.02749 | 60215 ft | 1089 kts | 229° |
| 2026-05-08 07:36 | 29.50123 | 131.90061 | 60279 ft | 1089 kts | 234° |
| 2026-05-08 07:37 | 29.41498 | 131.75850 | 60361 ft | 1087 kts | 239° |
| 2026-05-08 07:37 | 29.32667 | 131.61720 | 60305 ft | 1091 kts | 235° |
| 2026-05-08 07:38 | 29.23695 | 131.47804 | 60331 ft | 1095 kts | 235° |
| 2026-05-08 07:38 | 29.14599 | 131.33827 | 60294 ft | 1094 kts | 235° |
| 2026-05-08 07:39 | 29.04804 | 131.18803 | 60287 ft | 1099 kts | 235° |
| 2026-05-08 07:39 | 28.96339 | 131.05857 | 60316 ft | 1100 kts | 236° |
| 2026-05-08 07:40 | 28.87177 | 130.91886 | 60251 ft | 1097 kts | 235° |
| 2026-05-08 07:40 | 28.77998 | 130.77935 | 60239 ft | 1099 kts | 235° |
| 2026-05-08 07:41 | 28.68813 | 130.64022 | 60271 ft | 1100 kts | 235° |
| 2026-05-08 07:41 | 28.59604 | 130.50120 | 60243 ft | 1099 kts | 235° |
| 2026-05-08 07:42 | 28.50372 | 130.36226 | 60247 ft | 1100 kts | 235° |
| 2026-05-08 07:42 | 28.41127 | 130.22360 | 60281 ft | 1102 kts | 235° |
| 2026-05-08 07:43 | 28.31862 | 130.08509 | 60229 ft | 1102 kts | 235° |
| 2026-05-08 07:43 | 28.22574 | 129.94669 | 60252 ft | 1101 kts | 235° |
| 2026-05-08 07:44 | 28.13266 | 129.80842 | 60268 ft | 1106 kts | 234° |
| 2026-05-08 07:44 | 28.03997 | 129.67118 | 60255 ft | 1104 kts | 234° |
| 2026-05-08 07:45 | 27.94643 | 129.53315 | 60289 ft | 1105 kts | 234° |
| 2026-05-08 07:45 | 27.85270 | 129.39524 | 60280 ft | 1107 kts | 234° |
| 2026-05-08 07:46 | 27.75879 | 129.25755 | 60247 ft | 1104 kts | 234° |
| 2026-05-08 07:46 | 27.66471 | 129.12002 | 60285 ft | 1110 kts | 234° |
| 2026-05-08 07:47 | 27.57031 | 128.98246 | 60293 ft | 1107 kts | 234° |
| 2026-05-08 07:47 | 27.47587 | 128.84528 | 60279 ft | 1106 kts | 234° |
| 2026-05-08 07:48 | 27.38143 | 128.70853 | 60277 ft | 1109 kts | 234° |
| 2026-05-08 07:48 | 27.28676 | 128.57188 | 60237 ft | 1105 kts | 234° |
| 2026-05-08 07:49 | 27.19258 | 128.43633 | 60237 ft | 1111 kts | 234° |
| 2026-05-08 07:49 | 27.09743 | 128.29984 | 60226 ft | 1110 kts | 234° |
| 2026-05-08 07:50 | 27.00200 | 128.16335 | 60265 ft | 1111 kts | 234° |
| 2026-05-08 07:50 | 26.90650 | 128.02718 | 60261 ft | 1112 kts | 234° |
| 2026-05-08 07:51 | 26.81052 | 127.89076 | 60328 ft | 1112 kts | 234° |
| 2026-05-08 07:51 | 26.71461 | 127.75482 | 60389 ft | 1116 kts | 234° |
| 2026-05-08 07:52 | 26.61841 | 127.61892 | 60239 ft | 1113 kts | 234° |
| 2026-05-08 07:52 | 26.52202 | 127.48314 | 60213 ft | 1118 kts | 234° |
| 2026-05-08 07:53 | 26.42550 | 127.34760 | 60223 ft | 1115 kts | 233° |
| 2026-05-08 07:53 | 26.32861 | 127.21193 | 60273 ft | 1117 kts | 233° |
| 2026-05-08 07:54 | 26.23242 | 127.07766 | 60227 ft | 1118 kts | 233° |
| 2026-05-08 07:54 | 26.13505 | 126.94213 | 60232 ft | 1119 kts | 233° |
| 2026-05-08 07:55 | 26.03764 | 126.80696 | 60224 ft | 1123 kts | 233° |
| 2026-05-08 07:55 | 25.93987 | 126.67168 | 60236 ft | 1120 kts | 233° |
| 2026-05-08 07:56 | 25.84193 | 126.53656 | 60245 ft | 1122 kts | 233° |
| 2026-05-08 07:56 | 25.74410 | 126.40201 | 60227 ft | 1121 kts | 233° |
| 2026-05-08 07:57 | 25.64592 | 126.26737 | 60233 ft | 1121 kts | 233° |
| 2026-05-08 07:57 | 25.54769 | 126.13301 | 60211 ft | 1124 kts | 233° |
| 2026-05-08 07:58 | 25.44909 | 125.99856 | 60223 ft | 1123 kts | 233° |
| 2026-05-08 07:58 | 25.35044 | 125.86444 | 60216 ft | 1127 kts | 233° |
| 2026-05-08 07:59 | 25.25152 | 125.73031 | 60216 ft | 1125 kts | 233° |
| 2026-05-08 07:59 | 25.15249 | 125.59642 | 60205 ft | 1127 kts | 233° |
| 2026-05-08 08:00 | 25.05319 | 125.46256 | 60208 ft | 1126 kts | 232° |
| 2026-05-08 08:00 | 24.95373 | 125.32886 | 60208 ft | 1129 kts | 232° |
| 2026-05-08 08:01 | 24.85419 | 125.19543 | 60219 ft | 1128 kts | 232° |
| 2026-05-08 08:01 | 24.75442 | 125.06207 | 60209 ft | 1128 kts | 232° |
| 2026-05-08 08:02 | 24.65448 | 124.92882 | 60184 ft | 1130 kts | 232° |
| 2026-05-08 08:02 | 24.55421 | 124.79554 | 60207 ft | 1131 kts | 232° |
| 2026-05-08 08:03 | 24.45389 | 124.66254 | 60190 ft | 1130 kts | 232° |
| 2026-05-08 08:03 | 24.35392 | 124.53037 | 60196 ft | 1132 kts | 232° |
| 2026-05-08 08:04 | 24.25315 | 124.39751 | 60176 ft | 1133 kts | 232° |
| 2026-05-08 08:04 | 24.15224 | 124.26485 | 60192 ft | 1133 kts | 232° |
| 2026-05-08 08:05 | 24.05114 | 124.13226 | 60205 ft | 1135 kts | 232° |
| 2026-05-08 08:05 | 23.94999 | 124.00000 | 60210 ft | 1133 kts | 232° |
| 2026-05-08 08:06 | 23.84859 | 123.86773 | 60187 ft | 1135 kts | 231° |
| 2026-05-08 08:06 | 23.75599 | 123.72876 | 60292 ft | 1132 kts | 241° |
| 2026-05-08 08:07 | 23.67119 | 123.58439 | 60283 ft | 1130 kts | 239° |
| 2026-05-08 08:07 | 23.58391 | 123.44247 | 60261 ft | 1135 kts | 237° |
| 2026-05-08 08:08 | 23.49532 | 123.30032 | 60224 ft | 1135 kts | 237° |
| 2026-05-08 08:08 | 23.40655 | 123.15818 | 60189 ft | 1134 kts | 237° |
| 2026-05-08 08:09 | 23.31768 | 123.01616 | 60197 ft | 1136 kts | 237° |
| 2026-05-08 08:09 | 23.22869 | 122.87433 | 60192 ft | 1136 kts | 237° |
| 2026-05-08 08:10 | 23.13945 | 122.73248 | 60196 ft | 1136 kts | 237° |
| 2026-05-08 08:10 | 23.05017 | 122.59093 | 60186 ft | 1137 kts | 236° |
| 2026-05-08 08:11 | 22.96066 | 122.44945 | 60197 ft | 1136 kts | 236° |
| 2026-05-08 08:11 | 22.87111 | 122.30827 | 60179 ft | 1137 kts | 236° |
| 2026-05-08 08:12 | 22.78129 | 122.16704 | 60199 ft | 1137 kts | 236° |
| 2026-05-08 08:12 | 22.70660 | 122.04990 | 60202 ft | 1137 kts | 236° |
| 2026-05-08 08:13 | 22.61668 | 121.90923 | 60177 ft | 1134 kts | 236° |
| 2026-05-08 08:13 | 22.51146 | 121.74507 | 60177 ft | 1135 kts | 236° |
| 2026-05-08 08:14 | 22.43648 | 121.62841 | 60143 ft | 1137 kts | 236° |
| 2026-05-08 08:14 | 22.34617 | 121.48825 | 60171 ft | 1136 kts | 236° |
| 2026-05-08 08:15 | 22.25572 | 121.34822 | 60157 ft | 1136 kts | 236° |
| 2026-05-08 08:15 | 22.16513 | 121.20834 | 60163 ft | 1139 kts | 236° |
| 2026-05-08 08:16 | 22.07428 | 121.06845 | 60177 ft | 1138 kts | 236° |
| 2026-05-08 08:16 | 21.98328 | 120.92867 | 60184 ft | 1139 kts | 236° |
| 2026-05-08 08:17 | 21.88514 | 120.79501 | 60294 ft | 1142 kts | 226° |
| 2026-05-08 08:17 | 21.77236 | 120.67444 | 60263 ft | 1141 kts | 225° |
| 2026-05-08 08:18 | 21.66047 | 120.55305 | 60199 ft | 1143 kts | 226° |
| 2026-05-08 08:18 | 21.54880 | 120.43170 | 60179 ft | 1144 kts | 226° |
| 2026-05-08 08:19 | 21.43686 | 120.31034 | 60170 ft | 1143 kts | 226° |
| 2026-05-08 08:19 | 21.32476 | 120.18911 | 60158 ft | 1144 kts | 226° |